sensor_id;sensor_type;location;lat;lon;timestamp;P1;durP1;ratioP1;P2;durP2;ratioP2
54699;SDS011;40599;53.132;6.090;2022-09-12T00:02:07;13.37;;;12.03;;
54699;SDS011;40599;53.132;6.090;2022-09-12T00:04:32;17.77;;;15.63;;
54699;SDS011;40599;53.132;6.090;2022-09-12T00:06:58;12.80;;;10.33;;
54699;SDS011;40599;53.132;6.090;2022-09-12T00:09:24;12.70;;;11.40;;
54699;SDS011;40599;53.132;6.090;2022-09-12T00:11:50;11.77;;;10.60;;
54699;SDS011;40599;53.132;6.090;2022-09-12T00:14:16;17.07;;;14.53;;
54699;SDS011;40599;53.132;6.090;2022-09-12T00:16:42;20.03;;;16.97;;
54699;SDS011;40599;53.132;6.090;2022-09-12T00:19:09;16.48;;;13.48;;
54699;SDS011;40599;53.132;6.090;2022-09-12T00:21:36;12.60;;;11.02;;
54699;SDS011;40599;53.132;6.090;2022-09-12T00:24:03;15.43;;;12.80;;
54699;SDS011;40599;53.132;6.090;2022-09-12T00:26:30;15.33;;;13.00;;
54699;SDS011;40599;53.132;6.090;2022-09-12T00:28:56;13.73;;;12.43;;
54699;SDS011;40599;53.132;6.090;2022-09-12T00:31:23;18.15;;;16.23;;
54699;SDS011;40599;53.132;6.090;2022-09-12T00:33:50;13.80;;;11.47;;
54699;SDS011;40599;53.132;6.090;2022-09-12T00:36:19;12.55;;;11.07;;
54699;SDS011;40599;53.132;6.090;2022-09-12T00:38:47;18.43;;;15.47;;
54699;SDS011;40599;53.132;6.090;2022-09-12T00:41:27;13.97;;;11.27;;
54699;SDS011;40599;53.132;6.090;2022-09-12T00:43:55;16.93;;;14.03;;
54699;SDS011;40599;53.132;6.090;2022-09-12T00:49:30;18.60;;;16.00;;
54699;SDS011;40599;53.132;6.090;2022-09-12T00:52:10;13.10;;;11.77;;
54699;SDS011;40599;53.132;6.090;2022-09-12T00:54:42;13.73;;;11.77;;
54699;SDS011;40599;53.132;6.090;2022-09-12T00:57:22;13.83;;;10.93;;
54699;SDS011;40599;53.132;6.090;2022-09-12T00:59:54;12.47;;;11.17;;
54699;SDS011;40599;53.132;6.090;2022-09-12T01:02:25;11.00;;;9.83;;
54699;SDS011;40599;53.132;6.090;2022-09-12T01:04:52;12.55;;;11.15;;
54699;SDS011;40599;53.132;6.090;2022-09-12T01:07:18;10.97;;;9.37;;
54699;SDS011;40599;53.132;6.090;2022-09-12T01:09:45;9.93;;;8.93;;
54699;SDS011;40599;53.132;6.090;2022-09-12T01:12:12;15.38;;;13.80;;
54699;SDS011;40599;53.132;6.090;2022-09-12T01:14:39;15.43;;;12.00;;
54699;SDS011;40599;53.132;6.090;2022-09-12T01:17:05;9.93;;;8.93;;
54699;SDS011;40599;53.132;6.090;2022-09-12T01:24:50;13.60;;;12.27;;
54699;SDS011;40599;53.132;6.090;2022-09-12T01:27:26;15.68;;;12.70;;
54699;SDS011;40599;53.132;6.090;2022-09-12T01:32:46;10.53;;;8.70;;
54699;SDS011;40599;53.132;6.090;2022-09-12T01:49:40;10.73;;;9.65;;
54699;SDS011;40599;53.132;6.090;2022-09-12T01:55:17;16.27;;;13.83;;
54699;SDS011;40599;53.132;6.090;2022-09-12T02:00:19;14.90;;;13.30;;
54699;SDS011;40599;53.132;6.090;2022-09-12T02:02:46;15.70;;;12.53;;
54699;SDS011;40599;53.132;6.090;2022-09-12T02:05:35;22.25;;;18.33;;
54699;SDS011;40599;53.132;6.090;2022-09-12T02:08:12;16.95;;;13.07;;
54699;SDS011;40599;53.132;6.090;2022-09-12T02:11:05;18.77;;;15.73;;
54699;SDS011;40599;53.132;6.090;2022-09-12T02:13:35;15.65;;;13.75;;
54699;SDS011;40599;53.132;6.090;2022-09-12T02:16:08;13.18;;;11.40;;
54699;SDS011;40599;53.132;6.090;2022-09-12T02:18:43;12.85;;;11.45;;
54699;SDS011;40599;53.132;6.090;2022-09-12T02:21:10;14.13;;;12.68;;
54699;SDS011;40599;53.132;6.090;2022-09-12T02:23:38;23.83;;;16.48;;
54699;SDS011;40599;53.132;6.090;2022-09-12T02:26:10;18.02;;;15.30;;
54699;SDS011;40599;53.132;6.090;2022-09-12T02:28:41;18.67;;;14.15;;
54699;SDS011;40599;53.132;6.090;2022-09-12T02:33:47;13.52;;;11.60;;
54699;SDS011;40599;53.132;6.090;2022-09-12T02:36:19;14.25;;;11.82;;
54699;SDS011;40599;53.132;6.090;2022-09-12T02:38:59;17.42;;;14.20;;
54699;SDS011;40599;53.132;6.090;2022-09-12T02:41:25;23.13;;;16.08;;
54699;SDS011;40599;53.132;6.090;2022-09-12T02:43:51;13.32;;;11.93;;
54699;SDS011;40599;53.132;6.090;2022-09-12T02:46:29;14.13;;;10.65;;
54699;SDS011;40599;53.132;6.090;2022-09-12T02:49:03;12.77;;;10.95;;
54699;SDS011;40599;53.132;6.090;2022-09-12T02:51:29;21.08;;;15.23;;
54699;SDS011;40599;53.132;6.090;2022-09-12T02:53:55;20.23;;;16.33;;
54699;SDS011;40599;53.132;6.090;2022-09-12T02:56:22;12.55;;;11.13;;
54699;SDS011;40599;53.132;6.090;2022-09-12T02:58:51;14.52;;;11.88;;
54699;SDS011;40599;53.132;6.090;2022-09-12T03:09:38;27.35;;;20.48;;
54699;SDS011;40599;53.132;6.090;2022-09-12T03:12:43;18.75;;;15.88;;
54699;SDS011;40599;53.132;6.090;2022-09-12T03:18:20;28.02;;;22.02;;
54699;SDS011;40599;53.132;6.090;2022-09-12T03:20:52;28.67;;;21.77;;
54699;SDS011;40599;53.132;6.090;2022-09-12T03:23:43;24.40;;;18.80;;
54699;SDS011;40599;53.132;6.090;2022-09-12T03:26:42;31.13;;;22.63;;
54699;SDS011;40599;53.132;6.090;2022-09-12T03:29:18;26.60;;;21.02;;
54699;SDS011;40599;53.132;6.090;2022-09-12T03:31:52;33.28;;;24.70;;
54699;SDS011;40599;53.132;6.090;2022-09-12T03:34:20;36.20;;;24.60;;
54699;SDS011;40599;53.132;6.090;2022-09-12T03:36:48;37.28;;;26.23;;
54699;SDS011;40599;53.132;6.090;2022-09-12T03:39:14;37.90;;;25.60;;
54699;SDS011;40599;53.132;6.090;2022-09-12T03:41:40;32.83;;;23.92;;
54699;SDS011;40599;53.132;6.090;2022-09-12T03:44:06;33.23;;;23.13;;
54699;SDS011;40599;53.132;6.090;2022-09-12T03:46:32;31.67;;;24.27;;
54699;SDS011;40599;53.132;6.090;2022-09-12T03:48:58;41.97;;;28.07;;
54699;SDS011;40599;53.132;6.090;2022-09-12T03:51:23;34.53;;;22.60;;
54699;SDS011;40599;53.132;6.090;2022-09-12T03:53:49;40.37;;;27.80;;
54699;SDS011;40599;53.132;6.090;2022-09-12T03:56:15;45.50;;;28.93;;
54699;SDS011;40599;53.132;6.090;2022-09-12T03:58:43;43.08;;;29.42;;
54699;SDS011;40599;53.132;6.090;2022-09-12T04:01:09;37.13;;;27.10;;
54699;SDS011;40599;53.132;6.090;2022-09-12T04:03:40;44.70;;;29.67;;
54699;SDS011;40599;53.132;6.090;2022-09-12T04:06:07;33.20;;;24.27;;
54699;SDS011;40599;53.132;6.090;2022-09-12T04:08:34;34.72;;;25.65;;
54699;SDS011;40599;53.132;6.090;2022-09-12T04:11:04;49.25;;;31.20;;
54699;SDS011;40599;53.132;6.090;2022-09-12T04:13:38;39.28;;;28.45;;
54699;SDS011;40599;53.132;6.090;2022-09-12T04:16:05;45.10;;;30.17;;
54699;SDS011;40599;53.132;6.090;2022-09-12T04:18:31;55.20;;;32.15;;
54699;SDS011;40599;53.132;6.090;2022-09-12T04:21:00;51.47;;;31.65;;
54699;SDS011;40599;53.132;6.090;2022-09-12T04:23:31;48.22;;;33.03;;
54699;SDS011;40599;53.132;6.090;2022-09-12T04:25:58;51.50;;;32.15;;
54699;SDS011;40599;53.132;6.090;2022-09-12T04:28:26;50.47;;;33.88;;
54699;SDS011;40599;53.132;6.090;2022-09-12T04:30:59;46.80;;;31.38;;
54699;SDS011;40599;53.132;6.090;2022-09-12T04:33:30;50.80;;;33.35;;
54699;SDS011;40599;53.132;6.090;2022-09-12T04:35:55;40.73;;;29.63;;
54699;SDS011;40599;53.132;6.090;2022-09-12T04:38:26;49.35;;;33.47;;
54699;SDS011;40599;53.132;6.090;2022-09-12T04:40:52;47.47;;;32.30;;
54699;SDS011;40599;53.132;6.090;2022-09-12T04:43:18;47.40;;;32.77;;
54699;SDS011;40599;53.132;6.090;2022-09-12T04:45:44;49.13;;;31.77;;
54699;SDS011;40599;53.132;6.090;2022-09-12T04:48:09;47.70;;;31.77;;
54699;SDS011;40599;53.132;6.090;2022-09-12T04:50:35;43.13;;;30.43;;
54699;SDS011;40599;53.132;6.090;2022-09-12T04:53:01;49.83;;;31.23;;
54699;SDS011;40599;53.132;6.090;2022-09-12T04:55:26;44.67;;;31.37;;
54699;SDS011;40599;53.132;6.090;2022-09-12T04:57:52;42.17;;;29.60;;
54699;SDS011;40599;53.132;6.090;2022-09-12T05:00:18;47.10;;;30.63;;
54699;SDS011;40599;53.132;6.090;2022-09-12T05:02:44;41.55;;;30.95;;
54699;SDS011;40599;53.132;6.090;2022-09-12T05:05:10;44.42;;;30.33;;
54699;SDS011;40599;53.132;6.090;2022-09-12T05:07:36;50.55;;;31.38;;
54699;SDS011;40599;53.132;6.090;2022-09-12T05:10:02;41.67;;;28.47;;
54699;SDS011;40599;53.132;6.090;2022-09-12T05:12:29;43.30;;;29.77;;
54699;SDS011;40599;53.132;6.090;2022-09-12T05:14:55;46.60;;;30.95;;
54699;SDS011;40599;53.132;6.090;2022-09-12T05:17:21;49.75;;;30.70;;
54699;SDS011;40599;53.132;6.090;2022-09-12T05:19:47;46.67;;;32.67;;
54699;SDS011;40599;53.132;6.090;2022-09-12T05:22:13;46.33;;;30.90;;
54699;SDS011;40599;53.132;6.090;2022-09-12T05:24:39;46.80;;;31.83;;
54699;SDS011;40599;53.132;6.090;2022-09-12T05:27:07;47.70;;;31.30;;
54699;SDS011;40599;53.132;6.090;2022-09-12T05:29:33;45.65;;;30.02;;
54699;SDS011;40599;53.132;6.090;2022-09-12T05:32:00;48.65;;;31.63;;
54699;SDS011;40599;53.132;6.090;2022-09-12T05:34:26;50.63;;;32.65;;
54699;SDS011;40599;53.132;6.090;2022-09-12T05:36:52;44.97;;;30.87;;
54699;SDS011;40599;53.132;6.090;2022-09-12T05:39:17;48.60;;;32.93;;
54699;SDS011;40599;53.132;6.090;2022-09-12T05:41:43;48.70;;;32.47;;
54699;SDS011;40599;53.132;6.090;2022-09-12T05:44:10;48.00;;;32.63;;
54699;SDS011;40599;53.132;6.090;2022-09-12T05:46:39;45.80;;;31.10;;
54699;SDS011;40599;53.132;6.090;2022-09-12T05:49:07;44.47;;;32.10;;
54699;SDS011;40599;53.132;6.090;2022-09-12T05:51:40;51.80;;;34.00;;
54699;SDS011;40599;53.132;6.090;2022-09-12T05:54:08;52.30;;;32.70;;
54699;SDS011;40599;53.132;6.090;2022-09-12T05:56:36;46.57;;;32.73;;
54699;SDS011;40599;53.132;6.090;2022-09-12T05:59:09;51.83;;;33.43;;
54699;SDS011;40599;53.132;6.090;2022-09-12T06:01:45;48.17;;;32.03;;
54699;SDS011;40599;53.132;6.090;2022-09-12T06:04:12;52.47;;;32.80;;
54699;SDS011;40599;53.132;6.090;2022-09-12T06:06:39;47.53;;;32.10;;
54699;SDS011;40599;53.132;6.090;2022-09-12T06:09:13;48.10;;;32.47;;
54699;SDS011;40599;53.132;6.090;2022-09-12T06:11:40;48.60;;;32.17;;
54699;SDS011;40599;53.132;6.090;2022-09-12T06:14:07;44.35;;;31.15;;
54699;SDS011;40599;53.132;6.090;2022-09-12T06:16:34;43.67;;;31.10;;
54699;SDS011;40599;53.132;6.090;2022-09-12T06:19:02;46.30;;;30.88;;
54699;SDS011;40599;53.132;6.090;2022-09-12T06:21:30;49.77;;;33.47;;
54699;SDS011;40599;53.132;6.090;2022-09-12T06:23:56;55.67;;;35.15;;
54699;SDS011;40599;53.132;6.090;2022-09-12T06:26:23;51.35;;;33.42;;
54699;SDS011;40599;53.132;6.090;2022-09-12T06:28:50;50.65;;;32.53;;
54699;SDS011;40599;53.132;6.090;2022-09-12T06:33:45;50.80;;;33.73;;
54699;SDS011;40599;53.132;6.090;2022-09-12T06:36:16;55.67;;;36.30;;
54699;SDS011;40599;53.132;6.090;2022-09-12T06:38:43;61.53;;;36.93;;
54699;SDS011;40599;53.132;6.090;2022-09-12T06:41:15;63.00;;;38.63;;
54699;SDS011;40599;53.132;6.090;2022-09-12T06:43:41;56.30;;;37.53;;
54699;SDS011;40599;53.132;6.090;2022-09-12T06:46:08;66.63;;;39.55;;
54699;SDS011;40599;53.132;6.090;2022-09-12T06:48:34;65.80;;;39.83;;
54699;SDS011;40599;53.132;6.090;2022-09-12T06:51:04;65.45;;;40.17;;
54699;SDS011;40599;53.132;6.090;2022-09-12T06:53:31;65.17;;;39.87;;
54699;SDS011;40599;53.132;6.090;2022-09-12T06:58:25;66.17;;;39.27;;
54699;SDS011;40599;53.132;6.090;2022-09-12T07:00:52;67.23;;;41.30;;
54699;SDS011;40599;53.132;6.090;2022-09-12T07:03:29;70.28;;;42.45;;
54699;SDS011;40599;53.132;6.090;2022-09-12T07:05:56;63.17;;;39.13;;
54699;SDS011;40599;53.132;6.090;2022-09-12T07:08:21;67.10;;;41.17;;
54699;SDS011;40599;53.132;6.090;2022-09-12T07:10:47;67.00;;;41.40;;
54699;SDS011;40599;53.132;6.090;2022-09-12T07:13:13;62.83;;;39.93;;
54699;SDS011;40599;53.132;6.090;2022-09-12T07:15:38;69.87;;;41.83;;
54699;SDS011;40599;53.132;6.090;2022-09-12T07:18:04;70.57;;;42.87;;
54699;SDS011;40599;53.132;6.090;2022-09-12T07:20:30;63.13;;;41.10;;
54699;SDS011;40599;53.132;6.090;2022-09-12T07:23:01;66.07;;;41.33;;
54699;SDS011;40599;53.132;6.090;2022-09-12T07:25:27;68.23;;;41.87;;
54699;SDS011;40599;53.132;6.090;2022-09-12T07:27:52;66.57;;;41.33;;
54699;SDS011;40599;53.132;6.090;2022-09-12T07:30:19;66.68;;;41.65;;
54699;SDS011;40599;53.132;6.090;2022-09-12T07:35:12;69.30;;;40.03;;
54699;SDS011;40599;53.132;6.090;2022-09-12T07:37:37;70.40;;;41.60;;
54699;SDS011;40599;53.132;6.090;2022-09-12T07:40:03;72.67;;;43.83;;
54699;SDS011;40599;53.132;6.090;2022-09-12T07:42:29;79.20;;;44.55;;
54699;SDS011;40599;53.132;6.090;2022-09-12T07:44:55;75.32;;;43.17;;
54699;SDS011;40599;53.132;6.090;2022-09-12T07:47:21;67.43;;;41.67;;
54699;SDS011;40599;53.132;6.090;2022-09-12T07:49:46;72.87;;;43.10;;
54699;SDS011;40599;53.132;6.090;2022-09-12T07:52:12;68.10;;;41.03;;
54699;SDS011;40599;53.132;6.090;2022-09-12T07:54:38;71.57;;;42.00;;
54699;SDS011;40599;53.132;6.090;2022-09-12T07:57:04;68.80;;;40.80;;
54699;SDS011;40599;53.132;6.090;2022-09-12T07:59:29;70.72;;;41.30;;
54699;SDS011;40599;53.132;6.090;2022-09-12T08:01:55;65.90;;;41.70;;
54699;SDS011;40599;53.132;6.090;2022-09-12T08:04:21;74.17;;;41.93;;
54699;SDS011;40599;53.132;6.090;2022-09-12T08:06:47;73.93;;;44.17;;
54699;SDS011;40599;53.132;6.090;2022-09-12T08:09:12;72.40;;;43.17;;
54699;SDS011;40599;53.132;6.090;2022-09-12T08:11:41;71.77;;;44.63;;
54699;SDS011;40599;53.132;6.090;2022-09-12T08:14:07;77.77;;;45.17;;
54699;SDS011;40599;53.132;6.090;2022-09-12T08:16:32;70.10;;;42.50;;
54699;SDS011;40599;53.132;6.090;2022-09-12T08:19:00;70.77;;;44.00;;
54699;SDS011;40599;53.132;6.090;2022-09-12T08:21:27;71.97;;;43.37;;
54699;SDS011;40599;53.132;6.090;2022-09-12T08:24:01;70.40;;;44.23;;
54699;SDS011;40599;53.132;6.090;2022-09-12T08:26:29;71.90;;;42.10;;
54699;SDS011;40599;53.132;6.090;2022-09-12T08:28:55;71.45;;;42.80;;
54699;SDS011;40599;53.132;6.090;2022-09-12T08:31:21;63.43;;;41.90;;
54699;SDS011;40599;53.132;6.090;2022-09-12T08:33:48;67.77;;;42.17;;
54699;SDS011;40599;53.132;6.090;2022-09-12T08:36:18;74.25;;;44.28;;
54699;SDS011;40599;53.132;6.090;2022-09-12T08:38:47;72.20;;;44.77;;
54699;SDS011;40599;53.132;6.090;2022-09-12T08:41:31;71.17;;;43.50;;
54699;SDS011;40599;53.132;6.090;2022-09-12T08:49:28;73.50;;;43.73;;
54699;SDS011;40599;53.132;6.090;2022-09-12T08:52:02;69.57;;;43.67;;
54699;SDS011;40599;53.132;6.090;2022-09-12T08:54:34;71.27;;;43.47;;
54699;SDS011;40599;53.132;6.090;2022-09-12T08:57:01;76.10;;;43.17;;
54699;SDS011;40599;53.132;6.090;2022-09-12T08:59:39;73.20;;;45.47;;
54699;SDS011;40599;53.132;6.090;2022-09-12T09:02:50;73.83;;;44.90;;
54699;SDS011;40599;53.132;6.090;2022-09-12T09:07:50;68.90;;;44.40;;
54699;SDS011;40599;53.132;6.090;2022-09-12T09:16:36;77.17;;;43.10;;
54699;SDS011;40599;53.132;6.090;2022-09-12T09:19:15;70.40;;;40.70;;
54699;SDS011;40599;53.132;6.090;2022-09-12T09:21:48;70.47;;;38.90;;
54699;SDS011;40599;53.132;6.090;2022-09-12T09:24:25;64.57;;;38.07;;
54699;SDS011;40599;53.132;6.090;2022-09-12T09:27:48;66.93;;;38.73;;
54699;SDS011;40599;53.132;6.090;2022-09-12T09:29:52;62.33;;;37.80;;
54699;SDS011;40599;53.132;6.090;2022-09-12T09:32:27;62.67;;;36.67;;
54699;SDS011;40599;53.132;6.090;2022-09-12T09:35:00;64.13;;;36.87;;
54699;SDS011;40599;53.132;6.090;2022-09-12T09:37:34;55.63;;;33.73;;
54699;SDS011;40599;53.132;6.090;2022-09-12T09:40:21;57.03;;;32.27;;
54699;SDS011;40599;53.132;6.090;2022-09-12T09:45:35;54.40;;;29.97;;
54699;SDS011;40599;53.132;6.090;2022-09-12T09:48:18;48.92;;;29.38;;
54699;SDS011;40599;53.132;6.090;2022-09-12T09:50:50;50.43;;;30.07;;
54699;SDS011;40599;53.132;6.090;2022-09-12T09:59:06;45.87;;;26.37;;
54699;SDS011;40599;53.132;6.090;2022-09-12T10:01:52;48.63;;;27.43;;
54699;SDS011;40599;53.132;6.090;2022-09-12T10:04:23;49.50;;;28.43;;
54699;SDS011;40599;53.132;6.090;2022-09-12T10:07:01;41.37;;;24.40;;
54699;SDS011;40599;53.132;6.090;2022-09-12T10:11:59;41.03;;;23.20;;
54699;SDS011;40599;53.132;6.090;2022-09-12T10:16:54;38.17;;;23.10;;
54699;SDS011;40599;53.132;6.090;2022-09-12T10:19:35;35.10;;;22.40;;
54699;SDS011;40599;53.132;6.090;2022-09-12T10:22:03;33.40;;;21.23;;
54699;SDS011;40599;53.132;6.090;2022-09-12T10:27:07;39.13;;;23.53;;
54699;SDS011;40599;53.132;6.090;2022-09-12T10:30:19;34.40;;;21.00;;
54699;SDS011;40599;53.132;6.090;2022-09-12T10:32:28;32.30;;;21.37;;
54699;SDS011;40599;53.132;6.090;2022-09-12T10:35:06;33.33;;;20.83;;
54699;SDS011;40599;53.132;6.090;2022-09-12T10:37:59;31.37;;;19.50;;
54699;SDS011;40599;53.132;6.090;2022-09-12T10:40:33;31.10;;;18.07;;
54699;SDS011;40599;53.132;6.090;2022-09-12T10:45:48;32.43;;;19.30;;
54699;SDS011;40599;53.132;6.090;2022-09-12T10:50:45;28.47;;;18.33;;
54699;SDS011;40599;53.132;6.090;2022-09-12T10:53:18;27.25;;;16.27;;
54699;SDS011;40599;53.132;6.090;2022-09-12T10:58:42;24.67;;;15.88;;
54699;SDS011;40599;53.132;6.090;2022-09-12T11:12:24;23.88;;;14.75;;
54699;SDS011;40599;53.132;6.090;2022-09-12T11:15:22;20.10;;;13.57;;
54699;SDS011;40599;53.132;6.090;2022-09-12T11:18:52;22.67;;;14.27;;
54699;SDS011;40599;53.132;6.090;2022-09-12T11:26:18;18.65;;;13.10;;
54699;SDS011;40599;53.132;6.090;2022-09-12T11:28:52;20.90;;;14.53;;
54699;SDS011;40599;53.132;6.090;2022-09-12T11:31:50;25.75;;;15.88;;
54699;SDS011;40599;53.132;6.090;2022-09-12T11:39:51;24.30;;;15.60;;
54699;SDS011;40599;53.132;6.090;2022-09-12T11:42:22;24.87;;;15.90;;
54699;SDS011;40599;53.132;6.090;2022-09-12T11:45:02;28.57;;;19.13;;
54699;SDS011;40599;53.132;6.090;2022-09-12T11:47:37;28.77;;;18.43;;
54699;SDS011;40599;53.132;6.090;2022-09-12T11:50:12;28.07;;;18.53;;
54699;SDS011;40599;53.132;6.090;2022-09-12T11:52:44;27.17;;;17.37;;
54699;SDS011;40599;53.132;6.090;2022-09-12T11:55:16;24.52;;;15.45;;
54699;SDS011;40599;53.132;6.090;2022-09-12T12:00:28;21.03;;;13.90;;
54699;SDS011;40599;53.132;6.090;2022-09-12T12:05:52;18.43;;;13.20;;
54699;SDS011;40599;53.132;6.090;2022-09-12T12:08:22;23.87;;;12.93;;
54699;SDS011;40599;53.132;6.090;2022-09-12T12:10:51;20.63;;;14.13;;
54699;SDS011;40599;53.132;6.090;2022-09-12T12:13:21;22.67;;;15.03;;
54699;SDS011;40599;53.132;6.090;2022-09-12T12:16:11;22.58;;;15.38;;
54699;SDS011;40599;53.132;6.090;2022-09-12T12:18:45;22.30;;;15.27;;
54699;SDS011;40599;53.132;6.090;2022-09-12T12:21:20;24.97;;;14.93;;
54699;SDS011;40599;53.132;6.090;2022-09-12T12:29:03;14.07;;;9.57;;
54699;SDS011;40599;53.132;6.090;2022-09-12T12:31:32;13.73;;;9.87;;
54699;SDS011;40599;53.132;6.090;2022-09-12T12:34:31;14.27;;;10.27;;
54699;SDS011;40599;53.132;6.090;2022-09-12T12:57:54;16.43;;;10.47;;
54699;SDS011;40599;53.132;6.090;2022-09-12T13:05:41;13.90;;;10.33;;
54699;SDS011;40599;53.132;6.090;2022-09-12T13:10:51;12.33;;;8.40;;
54699;SDS011;40599;53.132;6.090;2022-09-12T13:13:34;11.90;;;8.50;;
54699;SDS011;40599;53.132;6.090;2022-09-12T13:19:23;11.30;;;7.60;;
54699;SDS011;40599;53.132;6.090;2022-09-12T13:22:00;11.57;;;7.57;;
54699;SDS011;40599;53.132;6.090;2022-09-12T13:24:26;13.10;;;8.67;;
54699;SDS011;40599;53.132;6.090;2022-09-12T13:26:52;11.02;;;8.60;;
54699;SDS011;40599;53.132;6.090;2022-09-12T13:29:19;12.45;;;9.57;;
54699;SDS011;40599;53.132;6.090;2022-09-12T13:31:47;12.50;;;10.07;;
54699;SDS011;40599;53.132;6.090;2022-09-12T13:34:34;15.43;;;10.77;;
54699;SDS011;40599;53.132;6.090;2022-09-12T13:40:24;16.17;;;11.50;;
54699;SDS011;40599;53.132;6.090;2022-09-12T13:46:01;13.53;;;10.30;;
54699;SDS011;40599;53.132;6.090;2022-09-12T13:48:27;13.98;;;10.77;;
54699;SDS011;40599;53.132;6.090;2022-09-12T13:50:57;13.02;;;9.57;;
54699;SDS011;40599;53.132;6.090;2022-09-12T13:53:26;15.47;;;10.20;;
54699;SDS011;40599;53.132;6.090;2022-09-12T13:55:59;13.60;;;9.87;;
54699;SDS011;40599;53.132;6.090;2022-09-12T14:01:14;12.50;;;9.23;;
54699;SDS011;40599;53.132;6.090;2022-09-12T14:03:41;9.10;;;7.37;;
54699;SDS011;40599;53.132;6.090;2022-09-12T14:06:46;8.97;;;6.90;;
54699;SDS011;40599;53.132;6.090;2022-09-12T14:09:15;9.80;;;7.80;;
54699;SDS011;40599;53.132;6.090;2022-09-12T14:11:53;9.13;;;7.27;;
54699;SDS011;40599;53.132;6.090;2022-09-12T14:16:56;11.80;;;7.57;;
54699;SDS011;40599;53.132;6.090;2022-09-12T14:19:25;9.83;;;8.07;;
54699;SDS011;40599;53.132;6.090;2022-09-12T14:21:52;8.15;;;6.70;;
54699;SDS011;40599;53.132;6.090;2022-09-12T14:24:18;8.80;;;6.50;;
54699;SDS011;40599;53.132;6.090;2022-09-12T14:26:47;5.90;;;5.20;;
54699;SDS011;40599;53.132;6.090;2022-09-12T14:29:14;7.53;;;5.40;;
54699;SDS011;40599;53.132;6.090;2022-09-12T14:31:41;8.63;;;5.77;;
54699;SDS011;40599;53.132;6.090;2022-09-12T14:41:50;6.10;;;5.50;;
54699;SDS011;40599;53.132;6.090;2022-09-12T14:44:27;8.57;;;5.95;;
54699;SDS011;40599;53.132;6.090;2022-09-12T14:46:55;8.87;;;6.00;;
54699;SDS011;40599;53.132;6.090;2022-09-12T14:49:30;9.03;;;6.20;;
54699;SDS011;40599;53.132;6.090;2022-09-12T14:51:59;7.93;;;6.03;;
54699;SDS011;40599;53.132;6.090;2022-09-12T14:56:55;7.57;;;5.80;;
54699;SDS011;40599;53.132;6.090;2022-09-12T15:04:46;7.30;;;5.97;;
54699;SDS011;40599;53.132;6.090;2022-09-12T15:09:48;6.67;;;5.97;;
54699;SDS011;40599;53.132;6.090;2022-09-12T15:12:14;8.32;;;5.35;;
54699;SDS011;40599;53.132;6.090;2022-09-12T15:14:40;8.45;;;6.28;;
54699;SDS011;40599;53.132;6.090;2022-09-12T15:17:06;5.88;;;5.22;;
54699;SDS011;40599;53.132;6.090;2022-09-12T15:19:31;9.63;;;5.50;;
54699;SDS011;40599;53.132;6.090;2022-09-12T15:21:57;8.85;;;5.97;;
54699;SDS011;40599;53.132;6.090;2022-09-12T15:24:23;8.88;;;6.20;;
54699;SDS011;40599;53.132;6.090;2022-09-12T15:26:49;10.68;;;6.43;;
54699;SDS011;40599;53.132;6.090;2022-09-12T15:29:15;10.65;;;6.40;;
54699;SDS011;40599;53.132;6.090;2022-09-12T15:31:41;11.43;;;7.10;;
54699;SDS011;40599;53.132;6.090;2022-09-12T15:34:11;13.30;;;8.07;;
54699;SDS011;40599;53.132;6.090;2022-09-12T15:36:36;12.93;;;8.43;;
54699;SDS011;40599;53.132;6.090;2022-09-12T15:39:03;10.73;;;8.70;;
54699;SDS011;40599;53.132;6.090;2022-09-12T15:41:35;10.25;;;8.27;;
54699;SDS011;40599;53.132;6.090;2022-09-12T15:44:02;11.50;;;7.87;;
54699;SDS011;40599;53.132;6.090;2022-09-12T15:46:29;10.00;;;8.07;;
54699;SDS011;40599;53.132;6.090;2022-09-12T15:48:55;11.82;;;7.80;;
54699;SDS011;40599;53.132;6.090;2022-09-12T15:51:20;11.80;;;8.13;;
54699;SDS011;40599;53.132;6.090;2022-09-12T15:53:47;14.07;;;9.15;;
54699;SDS011;40599;53.132;6.090;2022-09-12T15:56:15;10.83;;;8.83;;
54699;SDS011;40599;53.132;6.090;2022-09-12T15:58:42;11.77;;;8.87;;
54699;SDS011;40599;53.132;6.090;2022-09-12T16:01:09;12.25;;;8.70;;
54699;SDS011;40599;53.132;6.090;2022-09-12T16:03:36;15.47;;;9.37;;
54699;SDS011;40599;53.132;6.090;2022-09-12T16:06:03;11.95;;;9.82;;
54699;SDS011;40599;53.132;6.090;2022-09-12T16:08:29;14.50;;;9.87;;
54699;SDS011;40599;53.132;6.090;2022-09-12T16:10:56;10.53;;;9.17;;
54699;SDS011;40599;53.132;6.090;2022-09-12T16:13:24;10.23;;;8.57;;
54699;SDS011;40599;53.132;6.090;2022-09-12T16:15:50;12.70;;;9.57;;
54699;SDS011;40599;53.132;6.090;2022-09-12T16:18:17;13.35;;;10.13;;
54699;SDS011;40599;53.132;6.090;2022-09-12T16:20:43;15.15;;;10.20;;
54699;SDS011;40599;53.132;6.090;2022-09-12T16:23:12;11.68;;;10.15;;
54699;SDS011;40599;53.132;6.090;2022-09-12T16:25:38;14.67;;;9.93;;
54699;SDS011;40599;53.132;6.090;2022-09-12T16:30:30;12.07;;;9.37;;
54699;SDS011;40599;53.132;6.090;2022-09-12T16:32:57;13.77;;;10.53;;
54699;SDS011;40599;53.132;6.090;2022-09-12T16:35:22;13.18;;;10.25;;
54699;SDS011;40599;53.132;6.090;2022-09-12T16:37:48;13.18;;;10.57;;
54699;SDS011;40599;53.132;6.090;2022-09-12T16:40:14;14.80;;;12.10;;
54699;SDS011;40599;53.132;6.090;2022-09-12T16:42:42;17.43;;;11.10;;
54699;SDS011;40599;53.132;6.090;2022-09-12T16:45:08;13.88;;;10.18;;
54699;SDS011;40599;53.132;6.090;2022-09-12T16:47:34;15.32;;;11.43;;
54699;SDS011;40599;53.132;6.090;2022-09-12T16:49:59;15.80;;;11.07;;
54699;SDS011;40599;53.132;6.090;2022-09-12T16:52:25;15.30;;;11.63;;
54699;SDS011;40599;53.132;6.090;2022-09-12T16:54:52;17.40;;;12.37;;
54699;SDS011;40599;53.132;6.090;2022-09-12T16:57:17;15.45;;;12.00;;
54699;SDS011;40599;53.132;6.090;2022-09-12T16:59:43;17.52;;;11.98;;
54699;SDS011;40599;53.132;6.090;2022-09-12T17:02:12;13.63;;;11.18;;
54699;SDS011;40599;53.132;6.090;2022-09-12T17:04:38;14.93;;;11.30;;
54699;SDS011;40599;53.132;6.090;2022-09-12T17:07:04;14.88;;;11.13;;
54699;SDS011;40599;53.132;6.090;2022-09-12T17:09:31;14.40;;;11.32;;
54699;SDS011;40599;53.132;6.090;2022-09-12T17:11:56;14.52;;;11.20;;
54699;SDS011;40599;53.132;6.090;2022-09-12T17:14:23;15.27;;;11.20;;
54699;SDS011;40599;53.132;6.090;2022-09-12T17:16:49;16.73;;;13.10;;
54699;SDS011;40599;53.132;6.090;2022-09-12T17:19:17;14.95;;;12.10;;
54699;SDS011;40599;53.132;6.090;2022-09-12T17:21:44;16.03;;;12.47;;
54699;SDS011;40599;53.132;6.090;2022-09-12T17:24:11;16.53;;;12.87;;
54699;SDS011;40599;53.132;6.090;2022-09-12T17:26:37;16.58;;;12.68;;
54699;SDS011;40599;53.132;6.090;2022-09-12T17:29:03;14.85;;;12.45;;
54699;SDS011;40599;53.132;6.090;2022-09-12T17:31:29;17.55;;;13.25;;
54699;SDS011;40599;53.132;6.090;2022-09-12T17:33:56;15.20;;;12.68;;
54699;SDS011;40599;53.132;6.090;2022-09-12T17:36:22;15.03;;;12.60;;
54699;SDS011;40599;53.132;6.090;2022-09-12T17:38:48;22.88;;;13.90;;
54699;SDS011;40599;53.132;6.090;2022-09-12T17:41:22;18.33;;;14.67;;
54699;SDS011;40599;53.132;6.090;2022-09-12T17:43:54;17.50;;;13.30;;
54699;SDS011;40599;53.132;6.090;2022-09-12T17:46:22;17.13;;;12.70;;
54699;SDS011;40599;53.132;6.090;2022-09-12T17:48:52;19.93;;;13.60;;
54699;SDS011;40599;53.132;6.090;2022-09-12T17:51:19;15.40;;;11.17;;